TimeCDT,TemperatureF,Dew PointF,Humidity,Sea Level PressureIn,VisibilityMPH,Wind Direction,Wind SpeedMPH,Gust SpeedMPH,PrecipitationIn,Events,Conditions,WindDirDegrees,DateUTC
12:52 AM,64.9,63.0,93,30.08,9.0,Calm,Calm,-,N/A,,Partly Cloudy,0,2013-08-19 05:52:00
1:52 AM,66.9,63.0,87,30.05,9.0,Calm,Calm,-,N/A,,Clear,0,2013-08-19 06:52:00
2:52 AM,66.9,62.1,84,30.04,9.0,Calm,Calm,-,N/A,,Clear,0,2013-08-19 07:52:00
3:52 AM,64.0,62.1,93,30.04,8.0,Calm,Calm,-,N/A,,Clear,0,2013-08-19 08:52:00
4:52 AM,63.0,61.0,93,30.04,6.0,Calm,Calm,-,N/A,,Clear,0,2013-08-19 09:52:00
5:52 AM,63.0,62.1,97,30.04,7.0,Calm,Calm,-,N/A,,Scattered Clouds,0,2013-08-19 10:52:00
6:52 AM,64.0,61.0,90,30.04,6.0,Calm,Calm,-,N/A,,Clear,0,2013-08-19 11:52:00
7:52 AM,68.0,63.0,84,30.06,7.0,SSW,3.5,-,N/A,,Overcast,200,2013-08-19 12:52:00
8:52 AM,71.1,64.0,78,30.07,9.0,SSE,3.5,-,N/A,,Mostly Cloudy,160,2013-08-19 13:52:00
9:52 AM,75.9,66.0,71,30.07,10.0,South,8.1,-,N/A,,Clear,170,2013-08-19 14:52:00
10:52 AM,80.1,64.9,60,30.07,10.0,South,11.5,-,N/A,,Clear,190,2013-08-19 15:52:00
11:52 AM,82.0,64.9,56,30.05,10.0,South,11.5,-,N/A,,Clear,190,2013-08-19 16:52:00
12:52 PM,84.0,66.0,55,30.04,10.0,SSW,11.5,-,N/A,,Clear,200,2013-08-19 17:52:00
1:52 PM,84.9,66.0,53,30.02,10.0,SSW,12.7,-,N/A,,Clear,210,2013-08-19 18:52:00
2:52 PM,86.0,66.9,53,30.01,10.0,SSW,9.2,-,N/A,,Clear,200,2013-08-19 19:52:00
3:52 PM,87.1,68.0,53,29.98,10.0,South,10.4,-,N/A,,Partly Cloudy,190,2013-08-19 20:52:00
4:52 PM,86.0,68.0,55,29.97,10.0,South,9.2,-,N/A,,Clear,180,2013-08-19 21:52:00
5:52 PM,84.9,68.0,57,29.96,10.0,SSW,11.5,-,N/A,,Clear,210,2013-08-19 22:52:00
6:52 PM,84.0,69.1,61,29.95,10.0,SSW,5.8,-,N/A,,Clear,200,2013-08-19 23:52:00
7:52 PM,80.1,68.0,67,29.95,10.0,South,3.5,-,N/A,,Clear,180,2013-08-20 00:52:00
8:52 PM,75.0,68.0,79,29.96,10.0,Calm,Calm,-,N/A,,Clear,0,2013-08-20 01:52:00
9:52 PM,75.0,68.0,79,29.97,10.0,Calm,Calm,-,N/A,,Clear,0,2013-08-20 02:52:00
10:52 PM,73.0,68.0,84,29.97,10.0,South,3.5,-,N/A,,Clear,190,2013-08-20 03:52:00
11:52 PM,73.9,68.0,82,29.98,10.0,SSW,3.5,-,N/A,,Clear,200,2013-08-20 04:52:00